sensor_id;sensor_type;location;lat;lon;timestamp;P1;durP1;ratioP1;P2;durP2;ratioP2
36931;SDS011;22847;42.654;23.370;2022-08-19T00:00:16;7.55;;;5.65;;
36931;SDS011;22847;42.654;23.370;2022-08-19T00:02:42;6.88;;;5.78;;
36931;SDS011;22847;42.654;23.370;2022-08-19T00:05:09;7.32;;;6.28;;
36931;SDS011;22847;42.654;23.370;2022-08-19T00:07:35;11.98;;;5.45;;
36931;SDS011;22847;42.654;23.370;2022-08-19T00:10:03;12.02;;;5.95;;
36931;SDS011;22847;42.654;23.370;2022-08-19T00:12:30;9.93;;;6.15;;
36931;SDS011;22847;42.654;23.370;2022-08-19T00:14:56;9.02;;;6.10;;
36931;SDS011;22847;42.654;23.370;2022-08-19T00:17:21;9.93;;;6.15;;
36931;SDS011;22847;42.654;23.370;2022-08-19T00:19:46;10.30;;;6.03;;
36931;SDS011;22847;42.654;23.370;2022-08-19T00:22:12;11.48;;;6.00;;
36931;SDS011;22847;42.654;23.370;2022-08-19T00:24:37;6.22;;;5.45;;
36931;SDS011;22847;42.654;23.370;2022-08-19T00:27:03;8.38;;;5.25;;
36931;SDS011;22847;42.654;23.370;2022-08-19T00:29:30;7.28;;;5.97;;
36931;SDS011;22847;42.654;23.370;2022-08-19T00:31:56;7.38;;;6.28;;
36931;SDS011;22847;42.654;23.370;2022-08-19T00:34:23;9.48;;;6.10;;
36931;SDS011;22847;42.654;23.370;2022-08-19T00:36:50;8.32;;;6.13;;
36931;SDS011;22847;42.654;23.370;2022-08-19T00:39:15;11.52;;;6.07;;
36931;SDS011;22847;42.654;23.370;2022-08-19T00:41:42;11.38;;;6.35;;
36931;SDS011;22847;42.654;23.370;2022-08-19T00:44:15;7.60;;;5.72;;
36931;SDS011;22847;42.654;23.370;2022-08-19T00:46:46;6.78;;;5.80;;
36931;SDS011;22847;42.654;23.370;2022-08-19T00:49:16;8.10;;;6.13;;
36931;SDS011;22847;42.654;23.370;2022-08-19T00:54:16;10.40;;;5.90;;
36931;SDS011;22847;42.654;23.370;2022-08-19T00:56:43;6.53;;;5.82;;
36931;SDS011;22847;42.654;23.370;2022-08-19T00:59:09;8.55;;;6.25;;
36931;SDS011;22847;42.654;23.370;2022-08-19T01:01:38;7.10;;;6.05;;
36931;SDS011;22847;42.654;23.370;2022-08-19T01:04:06;8.10;;;6.30;;
36931;SDS011;22847;42.654;23.370;2022-08-19T01:06:32;8.65;;;5.70;;
36931;SDS011;22847;42.654;23.370;2022-08-19T01:09:00;6.70;;;6.00;;
36931;SDS011;22847;42.654;23.370;2022-08-19T01:11:29;7.35;;;6.40;;
36931;SDS011;22847;42.654;23.370;2022-08-19T01:13:58;9.32;;;6.28;;
36931;SDS011;22847;42.654;23.370;2022-08-19T01:16:24;9.05;;;6.05;;
36931;SDS011;22847;42.654;23.370;2022-08-19T01:18:51;8.07;;;6.03;;
36931;SDS011;22847;42.654;23.370;2022-08-19T01:23:54;7.07;;;5.65;;
36931;SDS011;22847;42.654;23.370;2022-08-19T01:26:21;11.25;;;5.43;;
36931;SDS011;22847;42.654;23.370;2022-08-19T01:28:49;9.02;;;6.43;;
36931;SDS011;22847;42.654;23.370;2022-08-19T01:31:18;9.57;;;5.72;;
36931;SDS011;22847;42.654;23.370;2022-08-19T01:33:47;11.60;;;5.88;;
36931;SDS011;22847;42.654;23.370;2022-08-19T01:36:16;9.98;;;6.28;;
36931;SDS011;22847;42.654;23.370;2022-08-19T01:38:51;11.32;;;6.57;;
36931;SDS011;22847;42.654;23.370;2022-08-19T01:41:17;7.22;;;5.72;;
36931;SDS011;22847;42.654;23.370;2022-08-19T01:43:43;9.07;;;5.75;;
36931;SDS011;22847;42.654;23.370;2022-08-19T01:46:08;6.75;;;5.50;;
36931;SDS011;22847;42.654;23.370;2022-08-19T01:48:38;8.35;;;5.63;;
36931;SDS011;22847;42.654;23.370;2022-08-19T01:51:06;8.75;;;5.78;;
36931;SDS011;22847;42.654;23.370;2022-08-19T01:53:34;7.38;;;6.00;;
36931;SDS011;22847;42.654;23.370;2022-08-19T01:56:00;7.38;;;5.75;;
36931;SDS011;22847;42.654;23.370;2022-08-19T01:58:35;13.07;;;5.75;;
36931;SDS011;22847;42.654;23.370;2022-08-19T02:01:05;8.00;;;5.60;;
36931;SDS011;22847;42.654;23.370;2022-08-19T02:03:31;8.70;;;6.07;;
36931;SDS011;22847;42.654;23.370;2022-08-19T02:05:58;8.65;;;5.60;;
36931;SDS011;22847;42.654;23.370;2022-08-19T02:08:28;7.50;;;5.75;;
36931;SDS011;22847;42.654;23.370;2022-08-19T02:10:55;9.10;;;5.93;;
36931;SDS011;22847;42.654;23.370;2022-08-19T02:13:22;7.72;;;5.95;;
36931;SDS011;22847;42.654;23.370;2022-08-19T02:15:50;9.07;;;5.53;;
36931;SDS011;22847;42.654;23.370;2022-08-19T02:18:16;10.43;;;5.85;;
36931;SDS011;22847;42.654;23.370;2022-08-19T02:20:42;12.95;;;5.80;;
36931;SDS011;22847;42.654;23.370;2022-08-19T02:23:08;9.07;;;6.22;;
36931;SDS011;22847;42.654;23.370;2022-08-19T02:25:35;10.43;;;6.20;;
36931;SDS011;22847;42.654;23.370;2022-08-19T02:28:01;8.05;;;5.65;;
36931;SDS011;22847;42.654;23.370;2022-08-19T02:30:27;7.18;;;5.75;;
36931;SDS011;22847;42.654;23.370;2022-08-19T02:32:52;12.02;;;6.15;;
36931;SDS011;22847;42.654;23.370;2022-08-19T02:35:18;12.43;;;5.97;;
36931;SDS011;22847;42.654;23.370;2022-08-19T02:37:44;10.65;;;6.25;;
36931;SDS011;22847;42.654;23.370;2022-08-19T02:40:28;8.95;;;5.55;;
36931;SDS011;22847;42.654;23.370;2022-08-19T02:42:55;9.40;;;5.72;;
36931;SDS011;22847;42.654;23.370;2022-08-19T02:45:20;8.50;;;6.80;;
36931;SDS011;22847;42.654;23.370;2022-08-19T02:47:46;11.40;;;6.63;;
36931;SDS011;22847;42.654;23.370;2022-08-19T02:50:12;10.10;;;6.13;;
36931;SDS011;22847;42.654;23.370;2022-08-19T02:52:38;9.13;;;6.65;;
36931;SDS011;22847;42.654;23.370;2022-08-19T02:55:04;10.70;;;7.28;;
36931;SDS011;22847;42.654;23.370;2022-08-19T02:57:30;11.02;;;7.15;;
36931;SDS011;22847;42.654;23.370;2022-08-19T02:59:57;9.65;;;7.18;;
36931;SDS011;22847;42.654;23.370;2022-08-19T03:02:22;10.25;;;6.15;;
36931;SDS011;22847;42.654;23.370;2022-08-19T03:04:48;10.23;;;7.05;;
36931;SDS011;22847;42.654;23.370;2022-08-19T03:07:14;9.70;;;6.13;;
36931;SDS011;22847;42.654;23.370;2022-08-19T03:09:41;8.77;;;6.15;;
36931;SDS011;22847;42.654;23.370;2022-08-19T03:12:07;10.95;;;7.05;;
36931;SDS011;22847;42.654;23.370;2022-08-19T03:14:33;10.73;;;6.38;;
36931;SDS011;22847;42.654;23.370;2022-08-19T03:16:59;11.50;;;7.20;;
36931;SDS011;22847;42.654;23.370;2022-08-19T03:19:24;11.30;;;7.35;;
36931;SDS011;22847;42.654;23.370;2022-08-19T03:21:51;9.93;;;6.15;;
36931;SDS011;22847;42.654;23.370;2022-08-19T03:24:17;12.38;;;6.72;;
36931;SDS011;22847;42.654;23.370;2022-08-19T03:26:45;12.23;;;7.07;;
36931;SDS011;22847;42.654;23.370;2022-08-19T03:29:12;10.70;;;6.47;;
36931;SDS011;22847;42.654;23.370;2022-08-19T03:31:40;7.10;;;6.30;;
36931;SDS011;22847;42.654;23.370;2022-08-19T03:34:08;12.05;;;5.85;;
36931;SDS011;22847;42.654;23.370;2022-08-19T03:36:36;8.02;;;5.80;;
36931;SDS011;22847;42.654;23.370;2022-08-19T03:39:02;9.40;;;6.72;;
36931;SDS011;22847;42.654;23.370;2022-08-19T03:41:32;11.27;;;6.63;;
36931;SDS011;22847;42.654;23.370;2022-08-19T03:44:02;11.43;;;7.30;;
36931;SDS011;22847;42.654;23.370;2022-08-19T03:46:30;9.63;;;6.50;;
36931;SDS011;22847;42.654;23.370;2022-08-19T03:48:58;10.02;;;6.90;;
36931;SDS011;22847;42.654;23.370;2022-08-19T03:51:26;10.13;;;6.60;;
36931;SDS011;22847;42.654;23.370;2022-08-19T03:53:55;8.35;;;6.53;;
36931;SDS011;22847;42.654;23.370;2022-08-19T03:56:22;12.02;;;5.93;;
36931;SDS011;22847;42.654;23.370;2022-08-19T03:58:47;9.57;;;6.80;;
36931;SDS011;22847;42.654;23.370;2022-08-19T04:01:16;12.07;;;7.07;;
36931;SDS011;22847;42.654;23.370;2022-08-19T04:03:44;8.30;;;6.75;;
36931;SDS011;22847;42.654;23.370;2022-08-19T04:08:47;7.60;;;6.10;;
36931;SDS011;22847;42.654;23.370;2022-08-19T04:11:16;12.32;;;7.07;;
36931;SDS011;22847;42.654;23.370;2022-08-19T04:13:46;8.15;;;6.78;;
36931;SDS011;22847;42.654;23.370;2022-08-19T04:16:12;8.57;;;6.63;;
36931;SDS011;22847;42.654;23.370;2022-08-19T04:18:38;12.70;;;6.72;;
36931;SDS011;22847;42.654;23.370;2022-08-19T04:21:05;11.00;;;7.00;;
36931;SDS011;22847;42.654;23.370;2022-08-19T04:23:32;10.82;;;6.60;;
36931;SDS011;22847;42.654;23.370;2022-08-19T04:25:58;9.57;;;6.88;;
36931;SDS011;22847;42.654;23.370;2022-08-19T04:28:24;11.82;;;7.18;;
36931;SDS011;22847;42.654;23.370;2022-08-19T04:30:51;10.45;;;7.00;;
36931;SDS011;22847;42.654;23.370;2022-08-19T04:33:20;11.25;;;8.43;;
36931;SDS011;22847;42.654;23.370;2022-08-19T04:35:48;14.68;;;7.15;;
36931;SDS011;22847;42.654;23.370;2022-08-19T04:38:16;9.20;;;5.88;;
36931;SDS011;22847;42.654;23.370;2022-08-19T04:40:44;12.70;;;5.93;;
36931;SDS011;22847;42.654;23.370;2022-08-19T04:43:33;8.30;;;6.13;;
36931;SDS011;22847;42.654;23.370;2022-08-19T04:46:10;7.90;;;5.50;;
36931;SDS011;22847;42.654;23.370;2022-08-19T04:48:37;8.75;;;6.10;;
36931;SDS011;22847;42.654;23.370;2022-08-19T04:51:08;6.75;;;5.50;;
36931;SDS011;22847;42.654;23.370;2022-08-19T04:53:36;8.98;;;5.40;;
36931;SDS011;22847;42.654;23.370;2022-08-19T04:56:10;6.57;;;5.22;;
36931;SDS011;22847;42.654;23.370;2022-08-19T04:58:37;15.85;;;6.28;;
36931;SDS011;22847;42.654;23.370;2022-08-19T05:01:04;9.15;;;5.93;;
36931;SDS011;22847;42.654;23.370;2022-08-19T05:03:30;9.50;;;6.45;;
36931;SDS011;22847;42.654;23.370;2022-08-19T05:06:03;9.65;;;6.32;;
36931;SDS011;22847;42.654;23.370;2022-08-19T05:08:34;9.32;;;6.28;;
36931;SDS011;22847;42.654;23.370;2022-08-19T05:11:01;11.23;;;6.40;;
36931;SDS011;22847;42.654;23.370;2022-08-19T05:13:32;12.57;;;6.35;;
36931;SDS011;22847;42.654;23.370;2022-08-19T05:15:58;9.32;;;6.80;;
36931;SDS011;22847;42.654;23.370;2022-08-19T05:18:24;10.00;;;6.32;;
36931;SDS011;22847;42.654;23.370;2022-08-19T05:23:56;8.80;;;6.55;;
36931;SDS011;22847;42.654;23.370;2022-08-19T05:26:22;8.90;;;6.50;;
36931;SDS011;22847;42.654;23.370;2022-08-19T05:28:48;19.42;;;6.60;;
36931;SDS011;22847;42.654;23.370;2022-08-19T05:31:13;15.55;;;7.22;;
36931;SDS011;22847;42.654;23.370;2022-08-19T05:33:39;13.77;;;7.47;;
36931;SDS011;22847;42.654;23.370;2022-08-19T05:36:05;13.25;;;6.82;;
36931;SDS011;22847;42.654;23.370;2022-08-19T05:38:32;10.63;;;6.93;;
36931;SDS011;22847;42.654;23.370;2022-08-19T05:40:58;9.32;;;6.85;;
36931;SDS011;22847;42.654;23.370;2022-08-19T05:43:24;7.70;;;7.00;;
36931;SDS011;22847;42.654;23.370;2022-08-19T05:45:50;13.82;;;8.20;;
36931;SDS011;22847;42.654;23.370;2022-08-19T05:48:16;13.32;;;7.75;;
36931;SDS011;22847;42.654;23.370;2022-08-19T05:50:44;12.57;;;7.30;;
36931;SDS011;22847;42.654;23.370;2022-08-19T05:53:10;11.05;;;7.25;;
36931;SDS011;22847;42.654;23.370;2022-08-19T05:55:35;11.45;;;7.13;;
36931;SDS011;22847;42.654;23.370;2022-08-19T05:58:03;10.15;;;6.28;;
36931;SDS011;22847;42.654;23.370;2022-08-19T06:00:29;13.60;;;7.47;;
36931;SDS011;22847;42.654;23.370;2022-08-19T06:02:56;13.45;;;7.03;;
36931;SDS011;22847;42.654;23.370;2022-08-19T06:05:24;12.57;;;8.13;;
36931;SDS011;22847;42.654;23.370;2022-08-19T06:07:49;15.00;;;7.80;;
36931;SDS011;22847;42.654;23.370;2022-08-19T06:10:15;13.48;;;7.63;;
36931;SDS011;22847;42.654;23.370;2022-08-19T06:12:41;16.48;;;7.70;;
36931;SDS011;22847;42.654;23.370;2022-08-19T06:15:10;15.35;;;7.70;;
36931;SDS011;22847;42.654;23.370;2022-08-19T06:17:37;20.90;;;8.02;;
36931;SDS011;22847;42.654;23.370;2022-08-19T06:20:07;14.98;;;10.82;;
36931;SDS011;22847;42.654;23.370;2022-08-19T06:22:38;20.55;;;12.13;;
36931;SDS011;22847;42.654;23.370;2022-08-19T06:25:05;17.55;;;10.85;;
36931;SDS011;22847;42.654;23.370;2022-08-19T06:27:31;14.48;;;7.57;;
36931;SDS011;22847;42.654;23.370;2022-08-19T06:30:15;10.63;;;7.20;;
36931;SDS011;22847;42.654;23.370;2022-08-19T06:32:41;12.20;;;7.15;;
36931;SDS011;22847;42.654;23.370;2022-08-19T06:35:06;9.23;;;6.03;;
36931;SDS011;22847;42.654;23.370;2022-08-19T06:37:32;12.60;;;6.13;;
36931;SDS011;22847;42.654;23.370;2022-08-19T06:39:58;13.23;;;6.72;;
36931;SDS011;22847;42.654;23.370;2022-08-19T06:42:23;10.40;;;6.22;;
36931;SDS011;22847;42.654;23.370;2022-08-19T06:44:49;10.20;;;6.35;;
36931;SDS011;22847;42.654;23.370;2022-08-19T06:47:16;11.63;;;6.47;;
36931;SDS011;22847;42.654;23.370;2022-08-19T06:49:43;8.43;;;5.45;;
36931;SDS011;22847;42.654;23.370;2022-08-19T06:52:09;9.13;;;5.90;;
36931;SDS011;22847;42.654;23.370;2022-08-19T06:54:37;6.25;;;5.20;;
36931;SDS011;22847;42.654;23.370;2022-08-19T06:57:04;9.63;;;5.70;;
36931;SDS011;22847;42.654;23.370;2022-08-19T06:59:32;9.05;;;6.15;;
36931;SDS011;22847;42.654;23.370;2022-08-19T07:01:59;15.73;;;7.28;;
36931;SDS011;22847;42.654;23.370;2022-08-19T07:04:28;17.50;;;6.75;;
36931;SDS011;22847;42.654;23.370;2022-08-19T07:06:57;12.48;;;5.78;;
36931;SDS011;22847;42.654;23.370;2022-08-19T07:09:33;15.70;;;7.10;;
36931;SDS011;22847;42.654;23.370;2022-08-19T07:12:02;14.43;;;7.07;;
36931;SDS011;22847;42.654;23.370;2022-08-19T07:14:29;21.88;;;6.88;;
36931;SDS011;22847;42.654;23.370;2022-08-19T07:16:55;17.50;;;7.63;;
36931;SDS011;22847;42.654;23.370;2022-08-19T07:19:22;16.58;;;6.78;;
36931;SDS011;22847;42.654;23.370;2022-08-19T07:21:51;16.40;;;8.85;;
36931;SDS011;22847;42.654;23.370;2022-08-19T07:24:18;13.32;;;6.18;;
36931;SDS011;22847;42.654;23.370;2022-08-19T07:26:45;20.70;;;7.88;;
36931;SDS011;22847;42.654;23.370;2022-08-19T07:29:11;23.42;;;6.72;;
36931;SDS011;22847;42.654;23.370;2022-08-19T07:31:37;15.50;;;7.32;;
36931;SDS011;22847;42.654;23.370;2022-08-19T07:34:03;26.77;;;16.30;;
36931;SDS011;22847;42.654;23.370;2022-08-19T07:36:32;17.35;;;7.38;;
36931;SDS011;22847;42.654;23.370;2022-08-19T07:39:00;12.43;;;6.72;;
36931;SDS011;22847;42.654;23.370;2022-08-19T07:41:29;18.45;;;6.28;;
36931;SDS011;22847;42.654;23.370;2022-08-19T07:43:57;17.70;;;7.50;;
36931;SDS011;22847;42.654;23.370;2022-08-19T07:46:29;13.18;;;6.85;;
36931;SDS011;22847;42.654;23.370;2022-08-19T07:48:58;12.63;;;6.13;;
36931;SDS011;22847;42.654;23.370;2022-08-19T07:51:25;12.38;;;5.85;;
36931;SDS011;22847;42.654;23.370;2022-08-19T07:53:51;18.15;;;6.25;;
36931;SDS011;22847;42.654;23.370;2022-08-19T07:56:18;13.30;;;6.03;;
36931;SDS011;22847;42.654;23.370;2022-08-19T07:58:45;10.38;;;5.97;;
36931;SDS011;22847;42.654;23.370;2022-08-19T08:01:18;14.68;;;6.72;;
36931;SDS011;22847;42.654;23.370;2022-08-19T08:03:46;15.65;;;6.35;;
36931;SDS011;22847;42.654;23.370;2022-08-19T08:06:31;9.77;;;5.43;;
36931;SDS011;22847;42.654;23.370;2022-08-19T08:09:17;14.63;;;6.22;;
36931;SDS011;22847;42.654;23.370;2022-08-19T08:11:57;11.07;;;5.60;;
36931;SDS011;22847;42.654;23.370;2022-08-19T08:14:29;7.35;;;5.63;;
36931;SDS011;22847;42.654;23.370;2022-08-19T08:16:57;12.25;;;5.93;;
36931;SDS011;22847;42.654;23.370;2022-08-19T08:19:24;9.13;;;5.80;;
36931;SDS011;22847;42.654;23.370;2022-08-19T08:21:50;16.08;;;5.47;;
36931;SDS011;22847;42.654;23.370;2022-08-19T08:24:17;9.77;;;6.25;;
36931;SDS011;22847;42.654;23.370;2022-08-19T08:26:44;19.80;;;6.68;;
36931;SDS011;22847;42.654;23.370;2022-08-19T08:29:10;12.45;;;6.20;;
36931;SDS011;22847;42.654;23.370;2022-08-19T08:31:36;12.35;;;5.90;;
36931;SDS011;22847;42.654;23.370;2022-08-19T08:34:02;20.63;;;6.25;;
36931;SDS011;22847;42.654;23.370;2022-08-19T08:36:27;14.70;;;5.97;;
36931;SDS011;22847;42.654;23.370;2022-08-19T08:38:53;10.00;;;5.85;;
36931;SDS011;22847;42.654;23.370;2022-08-19T08:41:34;13.85;;;6.00;;
36931;SDS011;22847;42.654;23.370;2022-08-19T08:44:06;6.65;;;5.55;;
36931;SDS011;22847;42.654;23.370;2022-08-19T08:46:41;12.13;;;5.40;;
36931;SDS011;22847;42.654;23.370;2022-08-19T08:49:28;17.65;;;5.72;;
36931;SDS011;22847;42.654;23.370;2022-08-19T08:52:16;11.05;;;5.38;;
36931;SDS011;22847;42.654;23.370;2022-08-19T08:55:07;9.55;;;5.22;;
36931;SDS011;22847;42.654;23.370;2022-08-19T09:00:05;7.20;;;3.75;;
36931;SDS011;22847;42.654;23.370;2022-08-19T09:02:35;6.20;;;4.03;;
36931;SDS011;22847;42.654;23.370;2022-08-19T09:05:00;11.98;;;4.75;;
36931;SDS011;22847;42.654;23.370;2022-08-19T09:10:42;7.78;;;4.85;;
36931;SDS011;22847;42.654;23.370;2022-08-19T09:15:58;7.55;;;4.10;;
36931;SDS011;22847;42.654;23.370;2022-08-19T09:18:43;5.05;;;4.10;;
36931;SDS011;22847;42.654;23.370;2022-08-19T09:21:09;8.80;;;4.53;;
36931;SDS011;22847;42.654;23.370;2022-08-19T09:23:36;9.38;;;4.07;;
36931;SDS011;22847;42.654;23.370;2022-08-19T09:26:06;9.00;;;4.07;;
36931;SDS011;22847;42.654;23.370;2022-08-19T09:28:33;4.95;;;4.07;;
36931;SDS011;22847;42.654;23.370;2022-08-19T09:30:58;7.45;;;3.85;;
36931;SDS011;22847;42.654;23.370;2022-08-19T09:33:23;8.93;;;5.88;;
36931;SDS011;22847;42.654;23.370;2022-08-19T09:35:49;7.53;;;3.67;;
36931;SDS011;22847;42.654;23.370;2022-08-19T09:38:14;5.00;;;3.47;;
36931;SDS011;22847;42.654;23.370;2022-08-19T09:40:40;3.40;;;3.10;;
36931;SDS011;22847;42.654;23.370;2022-08-19T09:43:05;5.70;;;3.65;;
36931;SDS011;22847;42.654;23.370;2022-08-19T09:45:32;5.35;;;3.40;;
36931;SDS011;22847;42.654;23.370;2022-08-19T09:47:58;4.40;;;3.53;;
36931;SDS011;22847;42.654;23.370;2022-08-19T09:50:23;7.13;;;3.35;;
36931;SDS011;22847;42.654;23.370;2022-08-19T09:52:49;9.05;;;3.40;;
36931;SDS011;22847;42.654;23.370;2022-08-19T09:55:14;4.90;;;2.97;;
36931;SDS011;22847;42.654;23.370;2022-08-19T09:57:41;6.20;;;3.33;;
36931;SDS011;22847;42.654;23.370;2022-08-19T10:00:07;4.97;;;4.10;;
36931;SDS011;22847;42.654;23.370;2022-08-19T10:02:34;7.80;;;4.28;;
36931;SDS011;22847;42.654;23.370;2022-08-19T10:05:00;12.45;;;6.95;;
36931;SDS011;22847;42.654;23.370;2022-08-19T10:07:45;6.15;;;3.63;;
36931;SDS011;22847;42.654;23.370;2022-08-19T10:10:10;13.18;;;6.78;;
36931;SDS011;22847;42.654;23.370;2022-08-19T10:12:36;5.20;;;4.43;;
36931;SDS011;22847;42.654;23.370;2022-08-19T10:15:02;8.20;;;3.60;;
36931;SDS011;22847;42.654;23.370;2022-08-19T10:17:29;6.63;;;4.20;;
36931;SDS011;22847;42.654;23.370;2022-08-19T10:19:54;5.80;;;4.03;;
36931;SDS011;22847;42.654;23.370;2022-08-19T10:22:20;6.57;;;4.07;;
36931;SDS011;22847;42.654;23.370;2022-08-19T10:24:46;4.68;;;3.63;;
36931;SDS011;22847;42.654;23.370;2022-08-19T10:27:11;7.95;;;3.75;;
36931;SDS011;22847;42.654;23.370;2022-08-19T10:29:39;7.60;;;4.55;;
36931;SDS011;22847;42.654;23.370;2022-08-19T10:32:05;17.13;;;13.82;;
36931;SDS011;22847;42.654;23.370;2022-08-19T10:34:33;8.18;;;5.20;;
36931;SDS011;22847;42.654;23.370;2022-08-19T10:37:01;5.40;;;3.55;;
36931;SDS011;22847;42.654;23.370;2022-08-19T10:39:31;4.68;;;4.18;;
36931;SDS011;22847;42.654;23.370;2022-08-19T10:41:58;8.52;;;3.75;;
36931;SDS011;22847;42.654;23.370;2022-08-19T10:44:24;9.30;;;4.30;;
36931;SDS011;22847;42.654;23.370;2022-08-19T10:46:50;4.60;;;3.95;;
36931;SDS011;22847;42.654;23.370;2022-08-19T10:49:17;6.07;;;4.15;;
36931;SDS011;22847;42.654;23.370;2022-08-19T10:51:44;7.70;;;4.22;;
36931;SDS011;22847;42.654;23.370;2022-08-19T10:54:28;7.07;;;4.10;;
36931;SDS011;22847;42.654;23.370;2022-08-19T10:57:14;7.25;;;4.15;;
36931;SDS011;22847;42.654;23.370;2022-08-19T10:59:40;7.40;;;4.47;;
36931;SDS011;22847;42.654;23.370;2022-08-19T11:02:07;8.38;;;4.50;;
36931;SDS011;22847;42.654;23.370;2022-08-19T11:04:35;7.72;;;3.75;;
36931;SDS011;22847;42.654;23.370;2022-08-19T11:07:01;7.57;;;4.50;;
36931;SDS011;22847;42.654;23.370;2022-08-19T11:09:28;6.15;;;4.13;;
36931;SDS011;22847;42.654;23.370;2022-08-19T11:11:53;11.32;;;4.45;;
36931;SDS011;22847;42.654;23.370;2022-08-19T11:14:20;6.50;;;4.63;;
36931;SDS011;22847;42.654;23.370;2022-08-19T11:16:49;10.75;;;7.10;;
36931;SDS011;22847;42.654;23.370;2022-08-19T11:19:15;7.40;;;5.53;;
36931;SDS011;22847;42.654;23.370;2022-08-19T11:21:44;6.10;;;4.88;;
36931;SDS011;22847;42.654;23.370;2022-08-19T11:24:16;6.63;;;4.32;;
36931;SDS011;22847;42.654;23.370;2022-08-19T11:26:44;11.88;;;4.22;;
36931;SDS011;22847;42.654;23.370;2022-08-19T11:29:12;6.15;;;4.40;;
36931;SDS011;22847;42.654;23.370;2022-08-19T11:31:40;6.60;;;4.55;;
36931;SDS011;22847;42.654;23.370;2022-08-19T11:34:08;5.93;;;4.57;;
36931;SDS011;22847;42.654;23.370;2022-08-19T11:36:36;12.63;;;4.63;;
36931;SDS011;22847;42.654;23.370;2022-08-19T11:39:04;7.32;;;4.30;;
36931;SDS011;22847;42.654;23.370;2022-08-19T11:41:31;5.78;;;4.30;;
36931;SDS011;22847;42.654;23.370;2022-08-19T11:43:57;10.10;;;4.07;;
36931;SDS011;22847;42.654;23.370;2022-08-19T11:46:23;8.77;;;5.95;;
36931;SDS011;22847;42.654;23.370;2022-08-19T11:48:50;10.25;;;5.50;;
36931;SDS011;22847;42.654;23.370;2022-08-19T11:51:18;7.97;;;4.95;;
36931;SDS011;22847;42.654;23.370;2022-08-19T11:53:46;5.65;;;4.70;;
36931;SDS011;22847;42.654;23.370;2022-08-19T11:56:12;8.02;;;4.70;;
36931;SDS011;22847;42.654;23.370;2022-08-19T11:58:37;10.05;;;4.43;;
36931;SDS011;22847;42.654;23.370;2022-08-19T12:01:13;8.85;;;4.47;;
36931;SDS011;22847;42.654;23.370;2022-08-19T12:03:44;5.28;;;4.60;;
36931;SDS011;22847;42.654;23.370;2022-08-19T12:06:12;7.95;;;4.50;;
36931;SDS011;22847;42.654;23.370;2022-08-19T12:08:43;8.77;;;4.18;;
36931;SDS011;22847;42.654;23.370;2022-08-19T12:11:10;8.95;;;4.53;;
36931;SDS011;22847;42.654;23.370;2022-08-19T12:13:36;11.07;;;4.82;;
36931;SDS011;22847;42.654;23.370;2022-08-19T12:16:23;7.85;;;5.10;;
36931;SDS011;22847;42.654;23.370;2022-08-19T12:18:50;9.55;;;4.93;;
36931;SDS011;22847;42.654;23.370;2022-08-19T12:21:17;8.85;;;5.10;;
36931;SDS011;22847;42.654;23.370;2022-08-19T12:23:46;6.90;;;4.38;;
36931;SDS011;22847;42.654;23.370;2022-08-19T12:26:12;13.52;;;4.47;;
36931;SDS011;22847;42.654;23.370;2022-08-19T12:28:38;10.63;;;4.22;;
36931;SDS011;22847;42.654;23.370;2022-08-19T12:31:03;7.97;;;4.25;;
36931;SDS011;22847;42.654;23.370;2022-08-19T12:33:30;7.97;;;5.18;;
36931;SDS011;22847;42.654;23.370;2022-08-19T12:36:00;8.77;;;4.82;;
36931;SDS011;22847;42.654;23.370;2022-08-19T12:38:30;5.90;;;4.57;;
36931;SDS011;22847;42.654;23.370;2022-08-19T12:40:57;7.32;;;4.57;;
36931;SDS011;22847;42.654;23.370;2022-08-19T12:43:23;7.45;;;4.65;;
36931;SDS011;22847;42.654;23.370;2022-08-19T12:45:49;9.60;;;4.65;;
36931;SDS011;22847;42.654;23.370;2022-08-19T12:48:14;9.60;;;4.78;;
36931;SDS011;22847;42.654;23.370;2022-08-19T12:50:40;9.50;;;4.60;;
36931;SDS011;22847;42.654;23.370;2022-08-19T12:53:07;7.65;;;4.97;;
36931;SDS011;22847;42.654;23.370;2022-08-19T12:55:33;5.53;;;4.82;;
36931;SDS011;22847;42.654;23.370;2022-08-19T12:57:58;7.10;;;4.68;;
36931;SDS011;22847;42.654;23.370;2022-08-19T13:00:26;7.70;;;4.65;;
36931;SDS011;22847;42.654;23.370;2022-08-19T13:02:52;12.13;;;5.70;;
36931;SDS011;22847;42.654;23.370;2022-08-19T13:05:20;5.57;;;4.47;;
36931;SDS011;22847;42.654;23.370;2022-08-19T13:07:48;7.38;;;4.82;;
36931;SDS011;22847;42.654;23.370;2022-08-19T13:10:15;7.82;;;4.68;;
36931;SDS011;22847;42.654;23.370;2022-08-19T13:12:43;11.48;;;4.72;;
36931;SDS011;22847;42.654;23.370;2022-08-19T13:15:10;10.73;;;4.90;;
36931;SDS011;22847;42.654;23.370;2022-08-19T13:17:37;8.45;;;5.30;;
36931;SDS011;22847;42.654;23.370;2022-08-19T13:20:04;8.43;;;4.45;;
36931;SDS011;22847;42.654;23.370;2022-08-19T13:22:32;10.75;;;4.93;;
36931;SDS011;22847;42.654;23.370;2022-08-19T13:24:58;10.60;;;4.60;;
36931;SDS011;22847;42.654;23.370;2022-08-19T13:27:23;12.50;;;4.80;;
36931;SDS011;22847;42.654;23.370;2022-08-19T13:29:48;9.80;;;4.80;;
36931;SDS011;22847;42.654;23.370;2022-08-19T13:32:32;6.93;;;4.63;;
36931;SDS011;22847;42.654;23.370;2022-08-19T13:35:16;8.50;;;5.43;;
36931;SDS011;22847;42.654;23.370;2022-08-19T13:37:42;5.93;;;5.13;;
36931;SDS011;22847;42.654;23.370;2022-08-19T13:40:12;8.43;;;5.32;;
36931;SDS011;22847;42.654;23.370;2022-08-19T13:42:43;9.23;;;5.20;;
36931;SDS011;22847;42.654;23.370;2022-08-19T13:45:12;8.00;;;4.88;;
36931;SDS011;22847;42.654;23.370;2022-08-19T13:47:39;11.50;;;5.60;;
36931;SDS011;22847;42.654;23.370;2022-08-19T13:50:08;6.28;;;4.85;;
36931;SDS011;22847;42.654;23.370;2022-08-19T13:52:35;7.97;;;4.95;;
36931;SDS011;22847;42.654;23.370;2022-08-19T13:55:02;10.85;;;5.53;;
36931;SDS011;22847;42.654;23.370;2022-08-19T13:57:29;8.13;;;5.25;;
36931;SDS011;22847;42.654;23.370;2022-08-19T13:59:55;9.40;;;5.47;;
36931;SDS011;22847;42.654;23.370;2022-08-19T14:02:22;10.02;;;5.15;;
36931;SDS011;22847;42.654;23.370;2022-08-19T14:04:47;6.18;;;4.80;;
36931;SDS011;22847;42.654;23.370;2022-08-19T14:07:12;9.25;;;5.22;;
36931;SDS011;22847;42.654;23.370;2022-08-19T14:09:39;8.05;;;5.32;;
36931;SDS011;22847;42.654;23.370;2022-08-19T14:12:04;8.50;;;5.43;;
36931;SDS011;22847;42.654;23.370;2022-08-19T14:14:30;9.80;;;5.68;;
36931;SDS011;22847;42.654;23.370;2022-08-19T14:16:55;11.15;;;7.88;;
36931;SDS011;22847;42.654;23.370;2022-08-19T14:19:21;13.02;;;7.78;;
36931;SDS011;22847;42.654;23.370;2022-08-19T14:21:46;9.25;;;7.75;;
36931;SDS011;22847;42.654;23.370;2022-08-19T14:24:12;9.35;;;5.65;;
36931;SDS011;22847;42.654;23.370;2022-08-19T14:26:37;6.15;;;5.35;;
36931;SDS011;22847;42.654;23.370;2022-08-19T14:29:03;7.20;;;5.00;;
36931;SDS011;22847;42.654;23.370;2022-08-19T14:31:28;6.95;;;5.97;;
36931;SDS011;22847;42.654;23.370;2022-08-19T14:33:54;8.85;;;6.03;;
36931;SDS011;22847;42.654;23.370;2022-08-19T14:36:19;10.32;;;5.47;;
36931;SDS011;22847;42.654;23.370;2022-08-19T14:38:46;6.97;;;5.28;;
36931;SDS011;22847;42.654;23.370;2022-08-19T14:41:15;8.23;;;6.05;;
36931;SDS011;22847;42.654;23.370;2022-08-19T14:43:44;8.83;;;5.30;;
36931;SDS011;22847;42.654;23.370;2022-08-19T14:46:12;9.95;;;5.63;;
36931;SDS011;22847;42.654;23.370;2022-08-19T14:48:39;11.77;;;5.07;;
36931;SDS011;22847;42.654;23.370;2022-08-19T14:51:05;8.75;;;5.85;;